sensor_id;sensor_type;location;lat;lon;timestamp;temperature;humidity
63317;DHT22;49822;41.468;13.560;2023-12-28T00:02:39;7.30;87.60
63317;DHT22;49822;41.468;13.560;2023-12-28T00:05:26;7.30;87.50
63317;DHT22;49822;41.468;13.560;2023-12-28T00:08:13;7.40;87.20
63317;DHT22;49822;41.468;13.560;2023-12-28T00:10:59;7.30;86.90
63317;DHT22;49822;41.468;13.560;2023-12-28T00:13:46;7.50;86.70
63317;DHT22;49822;41.468;13.560;2023-12-28T00:16:33;7.30;86.60
63317;DHT22;49822;41.468;13.560;2023-12-28T00:19:20;7.40;86.70
63317;DHT22;49822;41.468;13.560;2023-12-28T00:22:07;7.20;85.90
63317;DHT22;49822;41.468;13.560;2023-12-28T00:24:53;7.00;87.40
63317;DHT22;49822;41.468;13.560;2023-12-28T00:27:39;7.00;88.40
63317;DHT22;49822;41.468;13.560;2023-12-28T00:30:26;7.00;89.00
63317;DHT22;49822;41.468;13.560;2023-12-28T00:33:12;7.10;89.20
63317;DHT22;49822;41.468;13.560;2023-12-28T00:35:59;7.20;88.60
63317;DHT22;49822;41.468;13.560;2023-12-28T00:38:45;7.30;87.80
63317;DHT22;49822;41.468;13.560;2023-12-28T00:41:32;7.30;87.20
63317;DHT22;49822;41.468;13.560;2023-12-28T00:44:18;7.20;86.90
63317;DHT22;49822;41.468;13.560;2023-12-28T00:47:04;7.30;86.80
63317;DHT22;49822;41.468;13.560;2023-12-28T00:49:53;7.30;86.40
63317;DHT22;49822;41.468;13.560;2023-12-28T00:52:39;7.30;85.90
63317;DHT22;49822;41.468;13.560;2023-12-28T00:55:25;7.30;85.70
63317;DHT22;49822;41.468;13.560;2023-12-28T00:58:14;7.30;85.70
63317;DHT22;49822;41.468;13.560;2023-12-28T01:01:00;7.30;85.60
63317;DHT22;49822;41.468;13.560;2023-12-28T01:03:46;7.30;85.60
63317;DHT22;49822;41.468;13.560;2023-12-28T01:06:32;7.20;85.60
63317;DHT22;49822;41.468;13.560;2023-12-28T01:09:19;6.70;86.50
63317;DHT22;49822;41.468;13.560;2023-12-28T01:12:05;6.80;87.40
63317;DHT22;49822;41.468;13.560;2023-12-28T01:14:52;6.90;87.70
63317;DHT22;49822;41.468;13.560;2023-12-28T01:17:39;6.80;88.10
63317;DHT22;49822;41.468;13.560;2023-12-28T01:20:25;6.90;88.30
63317;DHT22;49822;41.468;13.560;2023-12-28T01:23:12;6.90;88.40
63317;DHT22;49822;41.468;13.560;2023-12-28T01:25:59;6.90;88.00
63317;DHT22;49822;41.468;13.560;2023-12-28T01:28:46;6.80;87.30
63317;DHT22;49822;41.468;13.560;2023-12-28T01:31:32;7.10;87.30
63317;DHT22;49822;41.468;13.560;2023-12-28T01:34:19;6.90;86.60
63317;DHT22;49822;41.468;13.560;2023-12-28T01:37:05;6.80;86.20
63317;DHT22;49822;41.468;13.560;2023-12-28T01:39:53;6.80;87.80
63317;DHT22;49822;41.468;13.560;2023-12-28T01:42:40;6.70;88.40
63317;DHT22;49822;41.468;13.560;2023-12-28T01:45:26;6.90;88.40
63317;DHT22;49822;41.468;13.560;2023-12-28T01:48:13;6.90;87.70
63317;DHT22;49822;41.468;13.560;2023-12-28T01:51:00;6.80;87.30
63317;DHT22;49822;41.468;13.560;2023-12-28T01:53:48;7.00;87.20
63317;DHT22;49822;41.468;13.560;2023-12-28T01:56:36;7.00;85.60
63317;DHT22;49822;41.468;13.560;2023-12-28T01:59:22;6.90;85.80
63317;DHT22;49822;41.468;13.560;2023-12-28T02:02:09;6.70;85.70
63317;DHT22;49822;41.468;13.560;2023-12-28T02:04:56;6.60;86.80
63317;DHT22;49822;41.468;13.560;2023-12-28T02:07:42;6.70;87.40
63317;DHT22;49822;41.468;13.560;2023-12-28T02:10:28;6.60;87.40
63317;DHT22;49822;41.468;13.560;2023-12-28T02:13:15;6.80;87.10
63317;DHT22;49822;41.468;13.560;2023-12-28T02:16:33;6.70;87.10
63317;DHT22;49822;41.468;13.560;2023-12-28T02:19:32;6.80;86.70
63317;DHT22;49822;41.468;13.560;2023-12-28T02:22:20;6.70;86.60
63317;DHT22;49822;41.468;13.560;2023-12-28T02:25:11;6.40;86.30
63317;DHT22;49822;41.468;13.560;2023-12-28T02:28:00;6.40;87.20
63317;DHT22;49822;41.468;13.560;2023-12-28T02:30:47;6.30;87.90
63317;DHT22;49822;41.468;13.560;2023-12-28T02:33:38;6.20;88.20
63317;DHT22;49822;41.468;13.560;2023-12-28T02:36:27;6.50;88.30
63317;DHT22;49822;41.468;13.560;2023-12-28T02:39:15;6.60;88.00
63317;DHT22;49822;41.468;13.560;2023-12-28T02:42:02;6.50;87.60
63317;DHT22;49822;41.468;13.560;2023-12-28T02:44:50;6.50;87.40
63317;DHT22;49822;41.468;13.560;2023-12-28T02:47:37;6.70;87.20
63317;DHT22;49822;41.468;13.560;2023-12-28T02:50:23;6.70;87.20
63317;DHT22;49822;41.468;13.560;2023-12-28T02:53:09;6.70;87.10
63317;DHT22;49822;41.468;13.560;2023-12-28T02:55:56;6.60;86.90
63317;DHT22;49822;41.468;13.560;2023-12-28T02:58:42;6.70;86.40
63317;DHT22;49822;41.468;13.560;2023-12-28T03:01:29;6.60;86.10
63317;DHT22;49822;41.468;13.560;2023-12-28T03:04:15;6.70;85.70
63317;DHT22;49822;41.468;13.560;2023-12-28T03:07:02;6.70;85.60
63317;DHT22;49822;41.468;13.560;2023-12-28T03:09:48;6.50;85.70
63317;DHT22;49822;41.468;13.560;2023-12-28T03:12:37;6.60;86.00
63317;DHT22;49822;41.468;13.560;2023-12-28T03:15:24;6.40;86.00
63317;DHT22;49822;41.468;13.560;2023-12-28T03:18:13;6.20;86.60
63317;DHT22;49822;41.468;13.560;2023-12-28T03:21:00;6.20;87.50
63317;DHT22;49822;41.468;13.560;2023-12-28T03:23:47;6.10;88.10
63317;DHT22;49822;41.468;13.560;2023-12-28T03:26:38;6.00;88.60
63317;DHT22;49822;41.468;13.560;2023-12-28T03:29:26;6.40;88.00
63317;DHT22;49822;41.468;13.560;2023-12-28T03:32:14;6.40;87.70
63317;DHT22;49822;41.468;13.560;2023-12-28T03:35:00;6.20;87.20
63317;DHT22;49822;41.468;13.560;2023-12-28T03:37:47;6.40;87.00
63317;DHT22;49822;41.468;13.560;2023-12-28T03:40:33;6.20;86.80
63317;DHT22;49822;41.468;13.560;2023-12-28T03:43:19;6.20;87.00
63317;DHT22;49822;41.468;13.560;2023-12-28T03:46:06;6.30;87.20
63317;DHT22;49822;41.468;13.560;2023-12-28T03:48:53;6.40;87.20
63317;DHT22;49822;41.468;13.560;2023-12-28T03:51:50;6.30;86.70
63317;DHT22;49822;41.468;13.560;2023-12-28T03:54:56;6.40;86.40
63317;DHT22;49822;41.468;13.560;2023-12-28T03:57:54;6.40;86.10
63317;DHT22;49822;41.468;13.560;2023-12-28T04:00:52;6.30;85.90
63317;DHT22;49822;41.468;13.560;2023-12-28T04:03:39;6.20;86.30
63317;DHT22;49822;41.468;13.560;2023-12-28T04:06:25;6.20;86.70
63317;DHT22;49822;41.468;13.560;2023-12-28T04:09:12;6.10;86.70
63317;DHT22;49822;41.468;13.560;2023-12-28T04:11:58;6.00;86.80
63317;DHT22;49822;41.468;13.560;2023-12-28T04:14:45;6.10;87.00
63317;DHT22;49822;41.468;13.560;2023-12-28T04:17:31;6.20;87.00
63317;DHT22;49822;41.468;13.560;2023-12-28T04:20:37;6.00;86.80
63317;DHT22;49822;41.468;13.560;2023-12-28T04:24:04;6.00;86.70
63317;DHT22;49822;41.468;13.560;2023-12-28T04:26:59;6.10;86.50
63317;DHT22;49822;41.468;13.560;2023-12-28T04:29:45;5.80;85.50
63317;DHT22;49822;41.468;13.560;2023-12-28T04:32:41;5.40;86.50
63317;DHT22;49822;41.468;13.560;2023-12-28T04:35:52;5.10;88.40
63317;DHT22;49822;41.468;13.560;2023-12-28T04:38:51;5.20;89.40
63317;DHT22;49822;41.468;13.560;2023-12-28T04:41:38;5.10;89.60
63317;DHT22;49822;41.468;13.560;2023-12-28T04:44:24;5.30;89.80
63317;DHT22;49822;41.468;13.560;2023-12-28T04:47:12;5.10;89.50
63317;DHT22;49822;41.468;13.560;2023-12-28T04:49:58;5.20;90.20
63317;DHT22;49822;41.468;13.560;2023-12-28T04:52:45;5.20;90.50
63317;DHT22;49822;41.468;13.560;2023-12-28T04:55:31;5.10;90.50
63317;DHT22;49822;41.468;13.560;2023-12-28T04:58:17;5.10;90.10
63317;DHT22;49822;41.468;13.560;2023-12-28T05:01:06;5.10;90.30
63317;DHT22;49822;41.468;13.560;2023-12-28T05:04:11;4.90;91.10
63317;DHT22;49822;41.468;13.560;2023-12-28T05:07:27;5.10;91.50
63317;DHT22;49822;41.468;13.560;2023-12-28T05:10:28;5.10;92.10
63317;DHT22;49822;41.468;13.560;2023-12-28T05:13:14;5.30;91.90
63317;DHT22;49822;41.468;13.560;2023-12-28T05:16:01;5.50;91.40
63317;DHT22;49822;41.468;13.560;2023-12-28T05:18:47;5.40;91.30
63317;DHT22;49822;41.468;13.560;2023-12-28T05:21:34;5.50;90.70
63317;DHT22;49822;41.468;13.560;2023-12-28T05:24:20;5.50;90.10
63317;DHT22;49822;41.468;13.560;2023-12-28T05:27:07;5.60;89.30
63317;DHT22;49822;41.468;13.560;2023-12-28T05:29:53;5.90;89.20
63317;DHT22;49822;41.468;13.560;2023-12-28T05:32:39;5.70;88.40
63317;DHT22;49822;41.468;13.560;2023-12-28T05:35:37;5.40;89.10
63317;DHT22;49822;41.468;13.560;2023-12-28T05:38:48;5.40;90.40
63317;DHT22;49822;41.468;13.560;2023-12-28T05:41:53;5.30;90.60
63317;DHT22;49822;41.468;13.560;2023-12-28T05:44:39;5.30;90.80
63317;DHT22;49822;41.468;13.560;2023-12-28T05:47:26;5.30;89.90
63317;DHT22;49822;41.468;13.560;2023-12-28T05:50:12;5.40;89.50
63317;DHT22;49822;41.468;13.560;2023-12-28T05:52:59;5.30;89.20
63317;DHT22;49822;41.468;13.560;2023-12-28T05:55:45;5.30;88.40
63317;DHT22;49822;41.468;13.560;2023-12-28T05:58:32;5.40;88.50
63317;DHT22;49822;41.468;13.560;2023-12-28T06:01:18;5.30;88.60
63317;DHT22;49822;41.468;13.560;2023-12-28T06:04:20;5.10;87.80
63317;DHT22;49822;41.468;13.560;2023-12-28T06:07:41;5.10;88.20
63317;DHT22;49822;41.468;13.560;2023-12-28T06:10:51;5.10;88.20
63317;DHT22;49822;41.468;13.560;2023-12-28T06:13:43;5.40;87.70
63317;DHT22;49822;41.468;13.560;2023-12-28T06:16:29;5.30;87.70
63317;DHT22;49822;41.468;13.560;2023-12-28T06:19:18;5.20;87.30
63317;DHT22;49822;41.468;13.560;2023-12-28T06:22:05;5.00;86.80
63317;DHT22;49822;41.468;13.560;2023-12-28T06:24:51;4.80;87.50
63317;DHT22;49822;41.468;13.560;2023-12-28T06:27:38;4.90;88.10
63317;DHT22;49822;41.468;13.560;2023-12-28T06:30:24;5.10;88.60
63317;DHT22;49822;41.468;13.560;2023-12-28T06:33:10;5.20;88.60
63317;DHT22;49822;41.468;13.560;2023-12-28T06:35:57;5.00;88.60
63317;DHT22;49822;41.468;13.560;2023-12-28T06:38:46;5.30;88.20
63317;DHT22;49822;41.468;13.560;2023-12-28T06:41:54;5.00;87.80
63317;DHT22;49822;41.468;13.560;2023-12-28T06:44:56;5.30;87.70
63317;DHT22;49822;41.468;13.560;2023-12-28T06:47:54;5.20;87.70
63317;DHT22;49822;41.468;13.560;2023-12-28T06:50:41;5.40;87.80
63317;DHT22;49822;41.468;13.560;2023-12-28T06:53:27;5.30;87.70
63317;DHT22;49822;41.468;13.560;2023-12-28T06:56:14;5.50;87.60
63317;DHT22;49822;41.468;13.560;2023-12-28T06:59:01;5.50;86.90
63317;DHT22;49822;41.468;13.560;2023-12-28T07:01:47;5.40;86.50
63317;DHT22;49822;41.468;13.560;2023-12-28T07:04:35;5.30;87.20
63317;DHT22;49822;41.468;13.560;2023-12-28T07:07:21;4.90;88.00
63317;DHT22;49822;41.468;13.560;2023-12-28T07:10:08;5.10;89.40
63317;DHT22;49822;41.468;13.560;2023-12-28T07:13:03;5.10;90.20
63317;DHT22;49822;41.468;13.560;2023-12-28T07:16:20;5.40;90.60
63317;DHT22;49822;41.468;13.560;2023-12-28T07:19:06;5.60;90.40
63317;DHT22;49822;41.468;13.560;2023-12-28T07:21:53;5.80;89.80
63317;DHT22;49822;41.468;13.560;2023-12-28T07:24:39;6.00;89.20
63317;DHT22;49822;41.468;13.560;2023-12-28T07:27:25;6.20;88.70
63317;DHT22;49822;41.468;13.560;2023-12-28T07:30:12;6.20;88.00
63317;DHT22;49822;41.468;13.560;2023-12-28T07:32:59;6.40;87.10
63317;DHT22;49822;41.468;13.560;2023-12-28T07:35:45;6.50;86.80
63317;DHT22;49822;41.468;13.560;2023-12-28T07:38:32;6.70;86.50
63317;DHT22;49822;41.468;13.560;2023-12-28T07:41:18;6.40;86.20
63317;DHT22;49822;41.468;13.560;2023-12-28T07:44:18;6.60;86.30
63317;DHT22;49822;41.468;13.560;2023-12-28T07:47:32;6.70;86.20
63317;DHT22;49822;41.468;13.560;2023-12-28T07:50:25;6.80;86.10
63317;DHT22;49822;41.468;13.560;2023-12-28T07:53:11;7.10;85.80
63317;DHT22;49822;41.468;13.560;2023-12-28T07:55:57;7.20;85.70
63317;DHT22;49822;41.468;13.560;2023-12-28T07:58:44;7.30;85.40
63317;DHT22;49822;41.468;13.560;2023-12-28T08:01:30;7.30;85.40
63317;DHT22;49822;41.468;13.560;2023-12-28T08:04:19;7.40;85.10
63317;DHT22;49822;41.468;13.560;2023-12-28T08:07:05;7.60;85.20
63317;DHT22;49822;41.468;13.560;2023-12-28T08:09:53;7.90;85.10
63317;DHT22;49822;41.468;13.560;2023-12-28T08:13:01;8.00;85.30
63317;DHT22;49822;41.468;13.560;2023-12-28T08:15:59;8.20;85.30
63317;DHT22;49822;41.468;13.560;2023-12-28T08:19:05;8.40;85.30
63317;DHT22;49822;41.468;13.560;2023-12-28T08:22:05;8.60;84.80
63317;DHT22;49822;41.468;13.560;2023-12-28T08:25:02;8.50;84.60
63317;DHT22;49822;41.468;13.560;2023-12-28T08:27:58;8.90;84.30
63317;DHT22;49822;41.468;13.560;2023-12-28T08:30:44;9.10;84.10
63317;DHT22;49822;41.468;13.560;2023-12-28T08:33:32;9.30;83.90
63317;DHT22;49822;41.468;13.560;2023-12-28T08:36:19;9.40;83.80
63317;DHT22;49822;41.468;13.560;2023-12-28T08:39:05;9.20;84.30
63317;DHT22;49822;41.468;13.560;2023-12-28T08:41:51;9.30;85.10
63317;DHT22;49822;41.468;13.560;2023-12-28T08:44:38;9.50;84.70
63317;DHT22;49822;41.468;13.560;2023-12-28T08:47:24;9.70;84.20
63317;DHT22;49822;41.468;13.560;2023-12-28T08:50:11;9.90;83.90
63317;DHT22;49822;41.468;13.560;2023-12-28T08:52:57;10.10;83.80
63317;DHT22;49822;41.468;13.560;2023-12-28T08:55:43;10.40;83.60
63317;DHT22;49822;41.468;13.560;2023-12-28T08:58:30;10.50;82.90
63317;DHT22;49822;41.468;13.560;2023-12-28T09:01:23;10.90;82.60
63317;DHT22;49822;41.468;13.560;2023-12-28T09:04:13;11.30;82.40
63317;DHT22;49822;41.468;13.560;2023-12-28T09:07:01;11.60;81.60
63317;DHT22;49822;41.468;13.560;2023-12-28T09:09:48;12.10;81.00
63317;DHT22;49822;41.468;13.560;2023-12-28T09:12:34;12.70;80.80
63317;DHT22;49822;41.468;13.560;2023-12-28T09:15:21;13.30;79.40
63317;DHT22;49822;41.468;13.560;2023-12-28T09:18:33;13.70;78.60
63317;DHT22;49822;41.468;13.560;2023-12-28T09:21:44;14.10;77.90
63317;DHT22;49822;41.468;13.560;2023-12-28T09:24:55;14.60;77.20
63317;DHT22;49822;41.468;13.560;2023-12-28T09:28:06;15.10;76.50
63317;DHT22;49822;41.468;13.560;2023-12-28T09:31:18;15.50;74.90
63317;DHT22;49822;41.468;13.560;2023-12-28T09:34:29;15.90;74.90
63317;DHT22;49822;41.468;13.560;2023-12-28T09:37:41;16.30;73.70
63317;DHT22;49822;41.468;13.560;2023-12-28T09:40:53;16.60;72.90
63317;DHT22;49822;41.468;13.560;2023-12-28T09:44:12;17.00;72.90
63317;DHT22;49822;41.468;13.560;2023-12-28T09:47:25;17.20;71.20
63317;DHT22;49822;41.468;13.560;2023-12-28T09:50:36;17.60;71.00
63317;DHT22;49822;41.468;13.560;2023-12-28T09:53:47;18.00;71.10
63317;DHT22;49822;41.468;13.560;2023-12-28T09:56:58;18.30;70.10
63317;DHT22;49822;41.468;13.560;2023-12-28T10:00:10;18.70;69.30
63317;DHT22;49822;41.468;13.560;2023-12-28T10:03:23;19.00;68.20
63317;DHT22;49822;41.468;13.560;2023-12-28T14:25:34;19.90;69.30
63317;DHT22;49822;41.468;13.560;2023-12-28T14:28:00;20.00;69.10
63317;DHT22;49822;41.468;13.560;2023-12-28T14:30:27;19.50;69.30
63317;DHT22;49822;41.468;13.560;2023-12-28T14:32:54;18.60;70.10
63317;DHT22;49822;41.468;13.560;2023-12-28T14:35:20;17.80;71.90
63317;DHT22;49822;41.468;13.560;2023-12-28T14:37:46;16.70;73.20
63317;DHT22;49822;41.468;13.560;2023-12-28T14:40:13;16.20;75.30
63317;DHT22;49822;41.468;13.560;2023-12-28T14:42:40;15.80;75.60
63317;DHT22;49822;41.468;13.560;2023-12-28T14:45:06;15.50;76.40
63317;DHT22;49822;41.468;13.560;2023-12-28T14:47:33;15.20;77.20
63317;DHT22;49822;41.468;13.560;2023-12-28T14:49:59;15.00;77.50
63317;DHT22;49822;41.468;13.560;2023-12-28T14:52:26;14.60;77.90
63317;DHT22;49822;41.468;13.560;2023-12-28T14:54:52;14.20;78.80
63317;DHT22;49822;41.468;13.560;2023-12-28T14:57:21;14.00;79.20
63317;DHT22;49822;41.468;13.560;2023-12-28T14:59:48;13.90;79.50
63317;DHT22;49822;41.468;13.560;2023-12-28T15:02:14;13.80;79.70
63317;DHT22;49822;41.468;13.560;2023-12-28T15:04:40;13.50;79.80
63317;DHT22;49822;41.468;13.560;2023-12-28T15:07:06;13.20;80.50
63317;DHT22;49822;41.468;13.560;2023-12-28T15:09:32;13.20;81.40
63317;DHT22;49822;41.468;13.560;2023-12-28T15:12:00;13.10;81.30
63317;DHT22;49822;41.468;13.560;2023-12-28T15:14:26;12.80;81.30
63317;DHT22;49822;41.468;13.560;2023-12-28T15:16:52;12.80;81.80
63317;DHT22;49822;41.468;13.560;2023-12-28T15:19:19;12.70;82.00
63317;DHT22;49822;41.468;13.560;2023-12-28T15:21:45;12.70;82.50
63317;DHT22;49822;41.468;13.560;2023-12-28T15:24:13;12.40;82.10
63317;DHT22;49822;41.468;13.560;2023-12-28T15:26:39;12.30;82.60
63317;DHT22;49822;41.468;13.560;2023-12-28T15:29:05;12.20;82.80
63317;DHT22;49822;41.468;13.560;2023-12-28T15:31:32;12.30;83.10
63317;DHT22;49822;41.468;13.560;2023-12-28T15:33:59;12.10;83.40
63317;DHT22;49822;41.468;13.560;2023-12-28T15:36:25;12.10;83.60
63317;DHT22;49822;41.468;13.560;2023-12-28T15:38:53;11.60;83.80
63317;DHT22;49822;41.468;13.560;2023-12-28T15:41:19;11.50;84.50
63317;DHT22;49822;41.468;13.560;2023-12-28T15:43:47;11.60;84.70
63317;DHT22;49822;41.468;13.560;2023-12-28T15:46:14;11.60;84.50
63317;DHT22;49822;41.468;13.560;2023-12-28T15:48:40;11.60;84.60
63317;DHT22;49822;41.468;13.560;2023-12-28T15:51:07;11.60;84.70
63317;DHT22;49822;41.468;13.560;2023-12-28T15:53:34;11.50;84.80
63317;DHT22;49822;41.468;13.560;2023-12-28T15:56:00;11.40;84.80
63317;DHT22;49822;41.468;13.560;2023-12-28T15:58:26;11.40;85.30
63317;DHT22;49822;41.468;13.560;2023-12-28T16:00:52;11.10;85.60
63317;DHT22;49822;41.468;13.560;2023-12-28T16:03:18;11.10;86.00
63317;DHT22;49822;41.468;13.560;2023-12-28T16:05:44;11.10;86.30
63317;DHT22;49822;41.468;13.560;2023-12-28T16:08:10;11.00;86.40
63317;DHT22;49822;41.468;13.560;2023-12-28T16:10:36;11.10;86.30
63317;DHT22;49822;41.468;13.560;2023-12-28T16:13:03;11.00;86.60
63317;DHT22;49822;41.468;13.560;2023-12-28T16:15:30;11.00;86.60
63317;DHT22;49822;41.468;13.560;2023-12-28T16:17:58;11.00;86.40
63317;DHT22;49822;41.468;13.560;2023-12-28T16:20:24;10.90;86.70
63317;DHT22;49822;41.468;13.560;2023-12-28T16:22:51;11.00;86.80
63317;DHT22;49822;41.468;13.560;2023-12-28T16:25:17;10.90;86.40
63317;DHT22;49822;41.468;13.560;2023-12-28T16:27:43;11.00;86.50
63317;DHT22;49822;41.468;13.560;2023-12-28T16:30:10;11.10;86.40
63317;DHT22;49822;41.468;13.560;2023-12-28T16:32:36;11.10;86.40
63317;DHT22;49822;41.468;13.560;2023-12-28T16:35:02;11.00;86.70
63317;DHT22;49822;41.468;13.560;2023-12-28T16:37:28;11.00;87.20
63317;DHT22;49822;41.468;13.560;2023-12-28T16:39:54;11.00;87.10
63317;DHT22;49822;41.468;13.560;2023-12-28T16:42:20;11.10;87.00
63317;DHT22;49822;41.468;13.560;2023-12-28T16:44:46;11.10;86.90
63317;DHT22;49822;41.468;13.560;2023-12-28T16:47:13;11.10;87.00
63317;DHT22;49822;41.468;13.560;2023-12-28T16:49:39;11.00;87.00
63317;DHT22;49822;41.468;13.560;2023-12-28T16:52:05;11.00;87.00
63317;DHT22;49822;41.468;13.560;2023-12-28T16:54:32;11.10;86.80
63317;DHT22;49822;41.468;13.560;2023-12-28T16:56:58;11.00;86.80
63317;DHT22;49822;41.468;13.560;2023-12-28T16:59:25;11.10;86.80
63317;DHT22;49822;41.468;13.560;2023-12-28T17:01:52;11.10;86.80
63317;DHT22;49822;41.468;13.560;2023-12-28T17:04:18;11.00;86.40
63317;DHT22;49822;41.468;13.560;2023-12-28T17:06:44;11.10;86.30
63317;DHT22;49822;41.468;13.560;2023-12-28T17:09:10;11.10;86.00
63317;DHT22;49822;41.468;13.560;2023-12-28T17:11:36;11.20;86.10
63317;DHT22;49822;41.468;13.560;2023-12-28T17:14:03;11.10;86.00
63317;DHT22;49822;41.468;13.560;2023-12-28T17:16:29;11.10;85.90
63317;DHT22;49822;41.468;13.560;2023-12-28T17:18:57;10.90;86.40
63317;DHT22;49822;41.468;13.560;2023-12-28T17:21:24;10.90;86.70
63317;DHT22;49822;41.468;13.560;2023-12-28T17:23:57;10.70;87.10
63317;DHT22;49822;41.468;13.560;2023-12-28T17:26:33;10.70;87.70
63317;DHT22;49822;41.468;13.560;2023-12-28T17:29:07;10.70;87.30
63317;DHT22;49822;41.468;13.560;2023-12-28T17:31:35;10.60;87.50
63317;DHT22;49822;41.468;13.560;2023-12-28T17:34:05;10.60;87.70
63317;DHT22;49822;41.468;13.560;2023-12-28T17:36:32;10.60;87.90
63317;DHT22;49822;41.468;13.560;2023-12-28T17:38:59;10.60;87.90
63317;DHT22;49822;41.468;13.560;2023-12-28T17:41:38;10.70;87.70
63317;DHT22;49822;41.468;13.560;2023-12-28T17:44:10;10.70;87.50
63317;DHT22;49822;41.468;13.560;2023-12-28T17:46:49;10.70;87.30
63317;DHT22;49822;41.468;13.560;2023-12-28T17:49:29;10.80;87.30
63317;DHT22;49822;41.468;13.560;2023-12-28T17:51:56;10.90;87.10
63317;DHT22;49822;41.468;13.560;2023-12-28T17:54:24;10.80;87.10
63317;DHT22;49822;41.468;13.560;2023-12-28T17:56:53;10.80;87.20
63317;DHT22;49822;41.468;13.560;2023-12-28T17:59:20;10.80;87.20
63317;DHT22;49822;41.468;13.560;2023-12-28T18:01:46;10.80;86.80
63317;DHT22;49822;41.468;13.560;2023-12-28T18:04:13;10.80;87.00
63317;DHT22;49822;41.468;13.560;2023-12-28T18:06:39;10.80;87.20
63317;DHT22;49822;41.468;13.560;2023-12-28T18:09:06;10.70;87.30
63317;DHT22;49822;41.468;13.560;2023-12-28T18:11:32;10.90;87.20
63317;DHT22;49822;41.468;13.560;2023-12-28T18:13:58;10.90;87.20
63317;DHT22;49822;41.468;13.560;2023-12-28T18:16:24;10.80;87.10
63317;DHT22;49822;41.468;13.560;2023-12-28T18:18:50;10.80;87.10
63317;DHT22;49822;41.468;13.560;2023-12-28T18:21:17;10.80;87.10
63317;DHT22;49822;41.468;13.560;2023-12-28T18:23:43;10.80;87.50
63317;DHT22;49822;41.468;13.560;2023-12-28T18:26:09;10.90;87.20
63317;DHT22;49822;41.468;13.560;2023-12-28T18:28:38;10.80;87.20
63317;DHT22;49822;41.468;13.560;2023-12-28T18:31:04;10.90;87.10
63317;DHT22;49822;41.468;13.560;2023-12-28T18:33:30;10.90;87.10
63317;DHT22;49822;41.468;13.560;2023-12-28T18:35:57;10.90;87.00
63317;DHT22;49822;41.468;13.560;2023-12-28T18:38:24;10.80;87.60
63317;DHT22;49822;41.468;13.560;2023-12-28T18:40:50;10.80;87.90
63317;DHT22;49822;41.468;13.560;2023-12-28T18:43:17;10.80;87.80
63317;DHT22;49822;41.468;13.560;2023-12-28T18:45:43;10.70;88.20
63317;DHT22;49822;41.468;13.560;2023-12-28T18:48:13;10.80;88.20
63317;DHT22;49822;41.468;13.560;2023-12-28T18:50:42;10.80;88.10
63317;DHT22;49822;41.468;13.560;2023-12-28T18:53:12;10.80;88.00
63317;DHT22;49822;41.468;13.560;2023-12-28T18:55:40;10.90;87.90
63317;DHT22;49822;41.468;13.560;2023-12-28T18:58:11;11.00;87.70
63317;DHT22;49822;41.468;13.560;2023-12-28T19:00:38;11.00;87.40
63317;DHT22;49822;41.468;13.560;2023-12-28T19:03:06;10.90;87.40
63317;DHT22;49822;41.468;13.560;2023-12-28T19:05:33;10.80;88.00
63317;DHT22;49822;41.468;13.560;2023-12-28T19:08:01;11.00;88.10
63317;DHT22;49822;41.468;13.560;2023-12-28T19:10:31;10.90;88.10
63317;DHT22;49822;41.468;13.560;2023-12-28T19:12:58;11.00;87.90
63317;DHT22;49822;41.468;13.560;2023-12-28T19:15:24;11.00;87.90
63317;DHT22;49822;41.468;13.560;2023-12-28T19:17:51;11.00;87.80
63317;DHT22;49822;41.468;13.560;2023-12-28T19:20:18;11.00;87.60
63317;DHT22;49822;41.468;13.560;2023-12-28T19:22:44;11.00;87.30
63317;DHT22;49822;41.468;13.560;2023-12-28T19:25:10;11.00;87.30
63317;DHT22;49822;41.468;13.560;2023-12-28T19:27:36;11.10;87.30
63317;DHT22;49822;41.468;13.560;2023-12-28T19:30:02;11.10;87.40
63317;DHT22;49822;41.468;13.560;2023-12-28T19:32:29;11.00;87.30
63317;DHT22;49822;41.468;13.560;2023-12-28T19:34:55;11.00;87.50
63317;DHT22;49822;41.468;13.560;2023-12-28T19:37:21;10.80;87.80
63317;DHT22;49822;41.468;13.560;2023-12-28T19:39:48;10.50;89.00
63317;DHT22;49822;41.468;13.560;2023-12-28T19:42:15;10.70;89.10
63317;DHT22;49822;41.468;13.560;2023-12-28T19:44:41;10.70;88.90
63317;DHT22;49822;41.468;13.560;2023-12-28T19:47:07;10.70;88.90
63317;DHT22;49822;41.468;13.560;2023-12-28T19:49:33;10.70;88.70
63317;DHT22;49822;41.468;13.560;2023-12-28T19:52:00;10.80;88.70
63317;DHT22;49822;41.468;13.560;2023-12-28T19:54:26;10.80;88.50
63317;DHT22;49822;41.468;13.560;2023-12-28T19:56:53;10.70;88.60
63317;DHT22;49822;41.468;13.560;2023-12-28T19:59:19;10.50;89.30
63317;DHT22;49822;41.468;13.560;2023-12-28T20:01:46;10.50;89.50
63317;DHT22;49822;41.468;13.560;2023-12-28T20:04:13;10.60;89.60
63317;DHT22;49822;41.468;13.560;2023-12-28T20:06:46;10.60;89.50
63317;DHT22;49822;41.468;13.560;2023-12-28T20:09:13;10.60;89.30
63317;DHT22;49822;41.468;13.560;2023-12-28T20:11:42;10.60;88.90
63317;DHT22;49822;41.468;13.560;2023-12-28T20:14:08;10.70;88.90
63317;DHT22;49822;41.468;13.560;2023-12-28T20:16:34;10.70;89.10
63317;DHT22;49822;41.468;13.560;2023-12-28T20:19:00;10.70;89.20
63317;DHT22;49822;41.468;13.560;2023-12-28T20:21:27;10.60;89.20
63317;DHT22;49822;41.468;13.560;2023-12-28T20:23:54;10.70;89.10
63317;DHT22;49822;41.468;13.560;2023-12-28T20:26:20;10.70;88.90
63317;DHT22;49822;41.468;13.560;2023-12-28T20:28:47;10.70;88.60
63317;DHT22;49822;41.468;13.560;2023-12-28T20:31:18;10.50;88.90
63317;DHT22;49822;41.468;13.560;2023-12-28T20:33:46;10.40;89.30
63317;DHT22;49822;41.468;13.560;2023-12-28T20:36:12;10.40;89.50
63317;DHT22;49822;41.468;13.560;2023-12-28T20:38:38;10.40;89.60
63317;DHT22;49822;41.468;13.560;2023-12-28T20:41:04;10.50;89.70
63317;DHT22;49822;41.468;13.560;2023-12-28T20:43:32;10.40;89.70
63317;DHT22;49822;41.468;13.560;2023-12-28T20:45:59;10.50;89.80
63317;DHT22;49822;41.468;13.560;2023-12-28T20:48:25;10.60;89.60
63317;DHT22;49822;41.468;13.560;2023-12-28T20:50:51;10.70;89.40
63317;DHT22;49822;41.468;13.560;2023-12-28T20:53:17;10.70;89.10
63317;DHT22;49822;41.468;13.560;2023-12-28T20:55:43;10.70;89.00
63317;DHT22;49822;41.468;13.560;2023-12-28T20:58:09;10.80;89.00
63317;DHT22;49822;41.468;13.560;2023-12-28T21:00:36;10.80;88.60
63317;DHT22;49822;41.468;13.560;2023-12-28T21:03:03;10.80;88.10
63317;DHT22;49822;41.468;13.560;2023-12-28T21:05:29;10.80;88.20
63317;DHT22;49822;41.468;13.560;2023-12-28T21:07:55;10.80;88.20